createdAt,value
2018-11-27T00:00:09.359Z,-9.07
2018-11-27T00:02:37.048Z,-9.11
2018-11-27T00:05:05.048Z,-9.13
2018-11-27T00:07:32.687Z,-9.13
2018-11-27T00:10:00.399Z,-9.16
2018-11-27T00:12:28.088Z,-9.20
2018-11-27T00:14:56.719Z,-9.20
2018-11-27T00:17:24.360Z,-9.21
2018-11-27T00:19:52.033Z,-9.20
2018-11-27T00:22:19.745Z,-9.16
2018-11-27T00:24:47.447Z,-9.15
2018-11-27T00:27:15.096Z,-9.11
2018-11-27T00:29:42.805Z,-9.13
2018-11-27T00:32:10.464Z,-9.19
2018-11-27T00:34:38.162Z,-9.24
2018-11-27T00:37:05.861Z,-9.24
2018-11-27T00:39:33.635Z,-9.26
2018-11-27T00:42:01.317Z,-9.25
2018-11-27T00:44:28.965Z,-9.23
2018-11-27T00:46:56.625Z,-9.24
2018-11-27T00:49:24.268Z,-9.28
2018-11-27T00:51:51.929Z,-9.35
2018-11-27T00:54:20.071Z,-9.43
2018-11-27T00:56:47.362Z,-9.48
2018-11-27T00:59:15.013Z,-9.50
2018-11-27T01:01:42.714Z,-9.51
2018-11-27T01:04:11.412Z,-9.55
2018-11-27T01:06:39.023Z,-9.51
2018-11-27T01:09:08.326Z,-9.54
2018-11-27T01:11:36.102Z,-9.53
2018-11-27T01:14:03.939Z,-9.51
2018-11-27T01:16:31.574Z,-9.54
2018-11-27T01:18:59.210Z,-9.55
2018-11-27T01:21:26.841Z,-9.55
2018-11-27T01:23:54.577Z,-9.57
2018-11-27T01:26:22.294Z,-9.61
2018-11-27T01:28:50.003Z,-9.66
2018-11-27T01:31:17.675Z,-9.70
2018-11-27T01:33:45.330Z,-9.74
2018-11-27T01:36:13.015Z,-9.76
2018-11-27T01:38:40.679Z,-9.77
2018-11-27T01:41:08.340Z,-9.74
2018-11-27T01:43:36.232Z,-9.79
2018-11-27T01:46:04.496Z,-9.82
2018-11-27T01:48:32.186Z,-9.86
2018-11-27T01:50:59.843Z,-9.91
2018-11-27T01:53:27.513Z,-9.94
2018-11-27T01:55:55.168Z,-9.95
2018-11-27T01:58:23.142Z,-9.93
2018-11-27T02:00:50.819Z,-9.84
2018-11-27T02:03:18.475Z,-9.83
2018-11-27T02:05:46.158Z,-9.79
2018-11-27T02:08:13.843Z,-9.80
2018-11-27T02:10:41.539Z,-9.82
2018-11-27T02:13:09.263Z,-9.86
2018-11-27T02:15:36.962Z,-9.91
2018-11-27T02:18:04.737Z,-9.96
2018-11-27T02:20:32.374Z,-9.99
2018-11-27T02:23:00.047Z,-10.04
2018-11-27T02:25:28.776Z,-10.04
2018-11-27T02:27:56.640Z,-10.03
2018-11-27T02:30:25.451Z,-9.93
2018-11-27T02:32:53.122Z,-9.82
2018-11-27T02:35:22.633Z,-9.80
2018-11-27T02:37:52.100Z,-9.83
2018-11-27T02:40:19.727Z,-9.87
2018-11-27T02:42:47.409Z,-9.92
2018-11-27T02:45:17.507Z,-9.97
2018-11-27T02:47:45.653Z,-9.92
2018-11-27T02:50:14.387Z,-10.18
2018-11-27T02:52:42.100Z,-9.98
2018-11-27T02:55:13.941Z,-9.97
2018-11-27T02:57:41.620Z,-10.00
2018-11-27T03:00:13.304Z,-10.03
2018-11-27T03:02:41.051Z,-10.08
2018-11-27T03:05:11.042Z,-10.10
2018-11-27T03:07:38.734Z,-10.16
2018-11-27T03:10:08.996Z,-10.29
2018-11-27T03:12:36.679Z,-10.17
2018-11-27T03:15:04.993Z,-10.14
2018-11-27T03:17:32.647Z,-10.18
2018-11-27T03:20:00.318Z,-10.19
2018-11-27T03:22:27.999Z,-10.15
2018-11-27T03:24:55.655Z,-10.08
2018-11-27T03:27:23.293Z,-10.00
2018-11-27T03:29:50.959Z,-9.80
2018-11-27T03:32:18.629Z,-9.78
2018-11-27T03:34:46.303Z,-9.74
2018-11-27T03:37:13.956Z,-9.60
2018-11-27T03:39:41.636Z,-9.51
2018-11-27T03:42:09.265Z,-9.49
2018-11-27T03:44:36.961Z,-9.43
2018-11-27T03:47:04.869Z,-9.35
2018-11-27T03:49:32.542Z,-9.33
2018-11-27T03:52:00.187Z,-9.31
2018-11-27T03:54:27.868Z,-9.23
2018-11-27T03:56:55.511Z,-9.18
2018-11-27T03:59:23.170Z,-9.19
2018-11-27T04:01:50.872Z,-9.23
2018-11-27T04:04:18.556Z,-9.23
2018-11-27T04:06:46.197Z,-9.24
2018-11-27T04:09:13.850Z,-9.27
2018-11-27T04:11:41.482Z,-9.28
2018-11-27T04:14:09.192Z,-9.32
2018-11-27T04:16:36.874Z,-9.35
2018-11-27T04:19:04.869Z,-9.37
2018-11-27T04:21:32.614Z,-9.35
2018-11-27T04:24:00.315Z,-9.23
2018-11-27T04:26:27.980Z,-9.21
2018-11-27T04:28:55.615Z,-9.24
2018-11-27T04:31:23.312Z,-9.24
2018-11-27T04:33:50.947Z,-9.13
2018-11-27T04:36:18.609Z,-9.06
2018-11-27T04:38:46.287Z,-9.05
2018-11-27T04:41:13.941Z,-9.08
2018-11-27T04:43:41.620Z,-9.12
2018-11-27T04:46:09.275Z,-9.08
2018-11-27T04:48:36.948Z,-9.05
2018-11-27T04:51:05.021Z,-9.01
2018-11-27T04:53:32.643Z,-9.02
2018-11-27T04:56:00.299Z,-9.06
2018-11-27T04:58:27.970Z,-9.07
2018-11-27T05:00:55.615Z,-9.06
2018-11-27T05:03:23.303Z,-9.03
2018-11-27T05:05:50.975Z,-9.02
2018-11-27T05:08:18.654Z,-9.02
2018-11-27T05:10:46.288Z,-9.04
2018-11-27T05:13:13.972Z,-9.07
2018-11-27T05:15:41.619Z,-9.07
2018-11-27T05:18:09.241Z,-9.15
2018-11-27T05:20:36.952Z,-9.21
2018-11-27T05:23:05.558Z,-9.21
2018-11-27T05:25:33.273Z,-9.24
2018-11-27T05:28:12.427Z,-9.27
2018-11-27T05:30:40.206Z,-9.27
2018-11-27T05:33:07.843Z,-9.29
2018-11-27T05:35:35.490Z,-9.31
2018-11-27T05:38:03.130Z,-9.33
2018-11-27T05:40:30.852Z,-9.34
2018-11-27T05:43:03.959Z,-9.37
2018-11-27T05:45:31.791Z,-9.42
2018-11-27T05:47:59.556Z,-9.38
2018-11-27T05:50:27.277Z,-9.43
2018-11-27T05:52:54.907Z,-9.46
2018-11-27T05:55:22.551Z,-9.50
2018-11-27T05:57:51.835Z,-9.56
2018-11-27T06:00:20.846Z,-9.61
2018-11-27T06:03:06.287Z,-9.60
2018-11-27T06:05:34.013Z,-9.64
2018-11-27T06:08:01.680Z,-9.65
2018-11-27T06:10:29.370Z,-9.69
2018-11-27T06:12:57.051Z,-9.69
2018-11-27T06:15:25.007Z,-9.67
2018-11-27T06:17:56.742Z,-9.70
2018-11-27T06:20:24.443Z,-9.70
2018-11-27T06:22:52.598Z,-9.70
2018-11-27T06:25:23.019Z,-9.67
2018-11-27T06:27:53.538Z,-9.66
2018-11-27T06:30:22.367Z,-9.71
2018-11-27T06:32:50.027Z,-9.71
2018-11-27T06:35:34.123Z,-9.73
2018-11-27T06:38:02.028Z,-9.74
2018-11-27T06:40:30.398Z,-9.74
2018-11-27T06:42:58.894Z,-9.74
2018-11-27T06:45:26.510Z,-9.71
2018-11-27T06:47:54.222Z,-9.70
2018-11-27T06:50:22.403Z,-9.62
2018-11-27T06:52:50.109Z,-9.57
2018-11-27T06:55:18.813Z,-9.52
2018-11-27T06:57:46.490Z,-9.50
2018-11-27T07:00:16.182Z,-9.49
2018-11-27T07:02:43.879Z,-9.45
2018-11-27T07:05:12.219Z,-9.36
2018-11-27T07:07:40.227Z,-9.30
2018-11-27T07:10:16.122Z,-9.29
2018-11-27T07:12:43.790Z,-9.27
2018-11-27T07:15:13.494Z,-9.26
2018-11-27T07:17:42.156Z,-9.26
2018-11-27T07:20:11.147Z,-9.22
2018-11-27T07:22:38.795Z,-9.18
2018-11-27T07:25:11.292Z,-9.04
2018-11-27T07:27:39.088Z,-9.03
2018-11-27T07:30:10.421Z,-9.04
2018-11-27T07:32:38.097Z,-9.05
2018-11-27T07:35:07.305Z,-8.99
2018-11-27T07:37:34.982Z,-9.04
2018-11-27T07:40:03.398Z,-9.09
2018-11-27T07:42:30.843Z,-9.11
2018-11-27T07:44:58.490Z,-9.12
2018-11-27T07:47:26.150Z,-9.11
2018-11-27T07:49:53.785Z,-9.10
2018-11-27T07:52:21.419Z,-9.09
2018-11-27T07:54:49.027Z,-9.10
2018-11-27T07:57:16.663Z,-9.03
2018-11-27T07:59:44.621Z,-9.03
2018-11-27T08:02:12.291Z,-9.03
2018-11-27T08:04:39.924Z,-9.01
2018-11-27T08:07:07.519Z,-9.00
2018-11-27T08:09:35.755Z,-8.99
2018-11-27T08:12:03.430Z,-8.99
2018-11-27T08:14:31.115Z,-8.97
2018-11-27T08:16:58.739Z,-8.97
2018-11-27T08:19:26.354Z,-9.01
2018-11-27T08:21:53.971Z,-9.01
2018-11-27T08:24:21.583Z,-9.01
2018-11-27T08:26:49.183Z,-9.01
2018-11-27T08:29:16.835Z,-9.05
2018-11-27T08:31:44.470Z,-9.03
2018-11-27T08:34:12.115Z,-8.99
2018-11-27T08:36:39.749Z,-8.97
2018-11-27T08:39:08.895Z,-8.92
2018-11-27T08:41:40.290Z,-8.89
2018-11-27T08:44:04.607Z,-8.92
2018-11-27T08:46:32.244Z,-8.92
2018-11-27T08:48:59.890Z,-8.91
2018-11-27T08:51:27.499Z,-8.87
2018-11-27T08:53:55.154Z,-8.90
2018-11-27T08:56:22.778Z,-8.87
2018-11-27T08:58:50.419Z,-8.88
2018-11-27T09:01:18.032Z,-8.80
2018-11-27T09:03:46.545Z,-8.75
2018-11-27T09:06:13.387Z,-8.74
2018-11-27T09:08:40.993Z,-8.77
2018-11-27T09:11:08.647Z,-8.75
2018-11-27T09:13:36.303Z,-8.75
2018-11-27T09:16:03.967Z,-8.74
2018-11-27T09:18:31.611Z,-8.72
2018-11-27T09:20:59.334Z,-8.73
2018-11-27T09:23:26.966Z,-8.74
2018-11-27T09:25:54.584Z,-8.77
2018-11-27T09:28:22.259Z,-8.77
2018-11-27T09:30:49.902Z,-8.77
2018-11-27T09:33:17.532Z,-8.75
2018-11-27T09:35:45.198Z,-8.75
2018-11-27T09:38:12.861Z,-8.73
2018-11-27T09:40:40.522Z,-8.73
2018-11-27T09:43:08.136Z,-8.71
2018-11-27T09:45:37.091Z,-8.69
2018-11-27T09:48:04.865Z,-8.66
2018-11-27T09:50:33.537Z,-8.60
2018-11-27T09:53:01.158Z,-8.57
2018-11-27T09:55:28.777Z,-8.54
2018-11-27T09:57:58.977Z,-8.54
2018-11-27T10:00:26.455Z,-8.52
2018-11-27T10:02:55.370Z,-8.46
2018-11-27T10:05:22.988Z,-8.40
2018-11-27T10:07:50.687Z,-8.36
2018-11-27T10:10:19.926Z,-8.38
2018-11-27T10:12:47.580Z,-8.37
2018-11-27T10:15:16.485Z,-8.35
2018-11-27T10:17:45.372Z,-8.37
2018-11-27T10:20:21.903Z,-8.35
2018-11-27T10:22:49.543Z,-8.37
2018-11-27T10:25:17.222Z,-8.42
2018-11-27T10:27:45.037Z,-8.36
2018-11-27T10:30:14.690Z,-8.38
2018-11-27T10:32:42.322Z,-8.40
2018-11-27T10:35:11.922Z,-8.44
2018-11-27T10:37:39.564Z,-8.47
2018-11-27T10:40:08.484Z,-8.49
2018-11-27T10:42:36.128Z,-8.48
2018-11-27T10:45:04.109Z,-8.49
2018-11-27T10:47:31.735Z,-8.47
2018-11-27T10:49:59.404Z,-8.48
2018-11-27T10:52:27.031Z,-8.48
2018-11-27T10:54:54.661Z,-8.48
2018-11-27T10:57:22.275Z,-8.49
2018-11-27T10:59:49.924Z,-8.50
2018-11-27T11:02:23.110Z,-8.51
2018-11-27T11:04:50.762Z,-8.54
2018-11-27T11:07:18.392Z,-8.55
2018-11-27T11:09:46.015Z,-8.54
2018-11-27T11:12:13.650Z,-8.53
2018-11-27T11:14:41.276Z,-8.57
2018-11-27T11:17:08.992Z,-8.56
2018-11-27T11:19:36.646Z,-8.58
2018-11-27T11:22:04.361Z,-8.62
2018-11-27T11:24:31.996Z,-8.64
2018-11-27T11:26:59.632Z,-8.63
2018-11-27T11:29:27.271Z,-8.64
2018-11-27T11:31:54.883Z,-8.69
2018-11-27T11:34:22.535Z,-8.70
2018-11-27T11:36:50.236Z,-8.75
2018-11-27T11:39:17.893Z,-8.78
2018-11-27T11:41:45.590Z,-8.79
2018-11-27T11:44:13.235Z,-8.82
2018-11-27T11:46:40.907Z,-8.84
2018-11-27T11:49:08.548Z,-8.87
2018-11-27T11:51:36.180Z,-8.88
2018-11-27T11:54:03.854Z,-8.91
2018-11-27T11:56:31.488Z,-8.93
2018-11-27T11:58:59.128Z,-8.95
2018-11-27T12:01:26.775Z,-8.97
2018-11-27T12:03:54.419Z,-8.97
2018-11-27T12:06:22.050Z,-8.94
2018-11-27T12:08:49.690Z,-8.89
2018-11-27T12:11:17.408Z,-8.92
2018-11-27T12:13:45.057Z,-8.95
2018-11-27T12:16:12.711Z,-8.93
2018-11-27T12:18:40.335Z,-8.93
2018-11-27T12:21:07.978Z,-8.92
2018-11-27T12:23:35.599Z,-8.92
2018-11-27T12:26:03.294Z,-8.88
2018-11-27T12:28:30.909Z,-8.86
2018-11-27T12:30:58.550Z,-8.78
2018-11-27T12:33:26.178Z,-8.85
2018-11-27T12:35:53.813Z,-8.95
2018-11-27T12:38:21.420Z,-8.98
2018-11-27T12:40:49.148Z,-9.02
2018-11-27T12:43:16.859Z,-9.03
2018-11-27T12:45:44.505Z,-9.05
2018-11-27T12:48:12.127Z,-9.10
2018-11-27T12:50:43.113Z,-9.14
2018-11-27T12:53:16.740Z,-9.24
2018-11-27T12:55:40.971Z,-9.30
2018-11-27T12:58:08.656Z,-9.38
2018-11-27T13:00:36.510Z,-9.51
2018-11-27T13:03:04.299Z,-9.59
2018-11-27T13:05:38.264Z,-9.68
2018-11-27T13:08:13.142Z,-9.82
2018-11-27T13:10:40.845Z,-9.91
2018-11-27T13:13:08.476Z,-9.98
2018-11-27T13:15:37.219Z,-10.07
2018-11-27T13:18:05.494Z,-10.13
2018-11-27T13:20:33.195Z,-10.18
2018-11-27T13:23:00.908Z,-10.22
2018-11-27T13:25:28.555Z,-10.25
2018-11-27T13:27:56.191Z,-10.27
2018-11-27T13:30:39.522Z,-10.31
2018-11-27T13:33:19.057Z,-10.35
2018-11-27T13:35:46.713Z,-10.39
2018-11-27T13:38:14.346Z,-10.43
2018-11-27T13:40:42.000Z,-10.44
2018-11-27T13:43:11.031Z,-10.46
2018-11-27T13:45:38.678Z,-10.47
2018-11-27T13:48:06.858Z,-10.51
2018-11-27T13:50:34.592Z,-10.52
2018-11-27T13:53:02.264Z,-10.55
2018-11-27T13:55:29.936Z,-10.60
2018-11-27T13:57:57.587Z,-10.65
2018-11-27T14:00:25.225Z,-10.66
2018-11-27T14:02:55.067Z,-10.73
2018-11-27T14:05:23.963Z,-10.80
2018-11-27T14:07:51.668Z,-10.82
2018-11-27T14:10:19.417Z,-10.88
2018-11-27T14:12:47.109Z,-10.91
2018-11-27T14:15:19.962Z,-10.93
2018-11-27T14:17:47.879Z,-10.96
2018-11-27T14:20:15.525Z,-11.00
2018-11-27T14:22:45.593Z,-10.99
2018-11-27T14:25:13.791Z,-11.04
2018-11-27T14:27:41.495Z,-11.09
2018-11-27T14:30:13.859Z,-11.22
2018-11-27T14:32:41.512Z,-11.28
2018-11-27T14:35:09.502Z,-11.31
2018-11-27T14:37:37.172Z,-11.39
2018-11-27T14:40:09.761Z,-11.50
2018-11-27T14:42:37.552Z,-11.62
2018-11-27T14:45:09.299Z,-11.62
2018-11-27T14:47:37.805Z,-11.61
2018-11-27T14:50:07.433Z,-11.65
2018-11-27T14:52:35.123Z,-11.73
2018-11-27T14:55:02.836Z,-11.84
2018-11-27T14:57:30.490Z,-11.89
2018-11-27T14:59:58.158Z,-11.91
2018-11-27T15:02:25.815Z,-11.90
2018-11-27T15:04:53.478Z,-11.89
2018-11-27T15:07:21.131Z,-11.90
2018-11-27T15:09:48.765Z,-11.95
2018-11-27T15:12:16.422Z,-12.02
2018-11-27T15:14:44.082Z,-12.05
2018-11-27T15:17:11.778Z,-12.07
2018-11-27T15:19:39.419Z,-12.04
2018-11-27T15:22:07.120Z,-12.12
2018-11-27T15:24:34.735Z,-12.13
2018-11-27T15:27:02.407Z,-12.14
2018-11-27T15:29:30.001Z,-12.13
2018-11-27T15:31:57.641Z,-12.17
2018-11-27T15:34:25.332Z,-12.26
2018-11-27T15:36:52.984Z,-12.33
2018-11-27T15:39:20.651Z,-12.36
2018-11-27T15:41:48.288Z,-12.40
2018-11-27T15:44:15.910Z,-12.41
2018-11-27T15:46:43.548Z,-12.41
2018-11-27T15:49:11.186Z,-12.40
2018-11-27T15:51:38.854Z,-12.49
2018-11-27T15:54:06.515Z,-12.48
2018-11-27T15:56:34.167Z,-12.47
2018-11-27T15:59:02.211Z,-12.48
2018-11-27T16:01:29.864Z,-12.48
2018-11-27T16:03:57.498Z,-12.60
2018-11-27T16:06:25.213Z,-12.73
2018-11-27T16:08:52.986Z,-12.71
2018-11-27T16:11:20.626Z,-12.75
2018-11-27T16:13:49.202Z,-12.79
2018-11-27T16:16:16.011Z,-12.78
2018-11-27T16:18:43.699Z,-12.80
2018-11-27T16:21:11.325Z,-12.81
2018-11-27T16:23:38.991Z,-12.80
2018-11-27T16:26:06.674Z,-12.90
2018-11-27T16:28:34.309Z,-13.03
2018-11-27T16:31:02.111Z,-13.14
2018-11-27T16:33:29.785Z,-13.20
2018-11-27T16:35:57.463Z,-13.21
2018-11-27T16:38:25.153Z,-13.24
2018-11-27T16:40:52.918Z,-13.31
2018-11-27T16:43:20.530Z,-13.28
2018-11-27T16:45:48.222Z,-13.32
2018-11-27T16:48:15.870Z,-13.40
2018-11-27T16:50:43.512Z,-13.43
2018-11-27T16:53:11.167Z,-13.46
2018-11-27T16:55:38.816Z,-13.48
2018-11-27T16:58:06.554Z,-13.50
2018-11-27T17:00:35.121Z,-13.50
2018-11-27T17:03:03.931Z,-13.49
2018-11-27T17:05:34.169Z,-13.48
2018-11-27T17:08:01.797Z,-13.52
2018-11-27T17:10:29.456Z,-13.58
2018-11-27T17:12:57.758Z,-13.60
2018-11-27T17:15:27.789Z,-13.67
2018-11-27T17:17:55.591Z,-13.75
2018-11-27T17:20:25.467Z,-13.77
2018-11-27T17:22:53.730Z,-13.78
2018-11-27T17:25:21.463Z,-13.75
2018-11-27T17:27:49.639Z,-13.79
2018-11-27T17:30:29.305Z,-13.82
2018-11-27T17:32:57.438Z,-13.89
2018-11-27T17:35:25.727Z,-13.92
2018-11-27T17:37:53.408Z,-13.95
2018-11-27T17:40:21.187Z,-13.97
2018-11-27T17:42:48.908Z,-13.98
2018-11-27T17:45:16.604Z,-14.00
2018-11-27T17:47:45.009Z,-14.05
2018-11-27T17:50:14.989Z,-14.06
2018-11-27T17:52:42.691Z,-14.12
2018-11-27T17:55:12.118Z,-14.14
2018-11-27T17:57:39.802Z,-14.12
2018-11-27T18:00:24.163Z,-14.10
2018-11-27T18:02:53.102Z,-14.10
2018-11-27T18:05:20.760Z,-14.12
2018-11-27T18:07:48.480Z,-14.18
2018-11-27T18:10:16.168Z,-14.18
2018-11-27T18:12:43.857Z,-14.16
2018-11-27T18:15:14.505Z,-14.13
2018-11-27T18:17:42.244Z,-14.07
2018-11-27T18:20:10.830Z,-14.13
2018-11-27T18:22:38.454Z,-14.23
2018-11-27T18:25:09.115Z,-14.34
2018-11-27T18:27:36.766Z,-14.37
2018-11-27T18:30:08.430Z,-14.33
2018-11-27T18:32:36.632Z,-14.29
2018-11-27T18:35:04.474Z,-14.23
2018-11-27T18:37:32.152Z,-14.34
2018-11-27T18:39:59.890Z,-14.02
2018-11-27T18:42:27.606Z,-13.95
2018-11-27T18:44:55.225Z,-14.11
2018-11-27T18:47:22.907Z,-14.29
2018-11-27T18:49:50.599Z,-14.38
2018-11-27T18:52:18.268Z,-14.46
2018-11-27T18:54:45.886Z,-14.56
2018-11-27T18:57:13.562Z,-14.64
2018-11-27T18:59:41.204Z,-14.64
2018-11-27T19:02:08.937Z,-14.66
2018-11-27T19:04:36.715Z,-14.71
2018-11-27T19:07:04.650Z,-14.76
2018-11-27T19:09:32.356Z,-14.81
2018-11-27T19:12:00.011Z,-14.84
2018-11-27T19:14:27.967Z,-14.89
2018-11-27T19:16:55.567Z,-14.92
2018-11-27T19:19:23.226Z,-14.95
2018-11-27T19:21:50.854Z,-15.00
2018-11-27T19:24:18.587Z,-14.97
2018-11-27T19:26:46.232Z,-14.95
2018-11-27T19:29:13.890Z,-14.98
2018-11-27T19:31:42.139Z,-15.05
2018-11-27T19:34:09.806Z,-15.11
2018-11-27T19:36:37.483Z,-15.15
2018-11-27T19:39:07.627Z,-15.20
2018-11-27T19:41:35.296Z,-15.21
2018-11-27T19:44:02.952Z,-15.17
2018-11-27T19:46:30.588Z,-15.09
2018-11-27T19:48:58.390Z,-15.12
2018-11-27T19:51:26.032Z,-15.23
2018-11-27T19:53:53.809Z,-15.29
2018-11-27T19:56:21.511Z,-15.32
2018-11-27T19:58:49.219Z,-15.33
2018-11-27T20:01:16.894Z,-15.35
2018-11-27T20:03:44.538Z,-15.31
2018-11-27T20:06:12.319Z,-15.33
2018-11-27T20:08:39.959Z,-15.34
2018-11-27T20:11:07.626Z,-15.27
2018-11-27T20:13:35.345Z,-15.19
2018-11-27T20:16:03.048Z,-15.11
2018-11-27T20:18:30.766Z,-14.96
2018-11-27T20:20:58.431Z,-14.99
2018-11-27T20:23:26.106Z,-15.13
2018-11-27T20:25:53.752Z,-15.27
2018-11-27T20:28:21.413Z,-15.35
2018-11-27T20:30:49.091Z,-15.37
2018-11-27T20:33:16.725Z,-15.40
2018-11-27T20:35:45.592Z,-15.40
2018-11-27T20:38:12.163Z,-15.27
2018-11-27T20:40:40.414Z,-15.10
2018-11-27T20:43:08.098Z,-15.10
2018-11-27T20:45:37.015Z,-15.27
2018-11-27T20:48:12.674Z,-15.42
2018-11-27T20:50:40.295Z,-15.57
2018-11-27T20:53:07.946Z,-15.60
2018-11-27T20:55:35.859Z,-15.63
2018-11-27T20:58:04.061Z,-15.65
2018-11-27T21:00:37.170Z,-15.72
2018-11-27T21:03:06.130Z,-15.73
2018-11-27T21:05:33.827Z,-15.68
2018-11-27T21:08:01.502Z,-15.58
2018-11-27T21:10:29.150Z,-15.44
2018-11-27T21:12:56.832Z,-15.29
2018-11-27T21:15:24.502Z,-15.48
2018-11-27T21:17:52.168Z,-15.64
2018-11-27T21:20:19.900Z,-15.68
2018-11-27T21:22:47.571Z,-15.74
2018-11-27T21:25:18.278Z,-15.71
2018-11-27T21:27:47.593Z,-15.69
2018-11-27T21:30:16.341Z,-15.65
2018-11-27T21:32:44.149Z,-15.64
2018-11-27T21:35:13.197Z,-15.71
2018-11-27T21:37:40.958Z,-15.74
2018-11-27T21:40:13.339Z,-15.68
2018-11-27T21:42:40.998Z,-15.77
2018-11-27T21:45:12.629Z,-15.89
2018-11-27T21:47:40.321Z,-15.98
2018-11-27T21:50:10.623Z,-16.09
2018-11-27T21:52:38.259Z,-16.17
2018-11-27T21:55:08.044Z,-16.17
2018-11-27T21:57:35.802Z,-16.28
2018-11-27T22:00:03.867Z,-16.33
2018-11-27T22:02:31.543Z,-16.32
2018-11-27T22:04:59.243Z,-16.22
2018-11-27T22:07:26.911Z,-16.05
2018-11-27T22:09:54.551Z,-16.14
2018-11-27T22:12:22.171Z,-16.20
2018-11-27T22:14:49.845Z,-16.03
2018-11-27T22:17:17.503Z,-16.03
2018-11-27T22:19:45.171Z,-16.17
2018-11-27T22:22:12.819Z,-16.24
2018-11-27T22:24:40.480Z,-16.30
2018-11-27T22:27:08.190Z,-16.26
2018-11-27T22:29:35.850Z,-16.24
2018-11-27T22:32:03.546Z,-16.25
2018-11-27T22:34:31.208Z,-16.15
2018-11-27T22:36:58.876Z,-16.17
2018-11-27T22:39:26.563Z,-16.22
2018-11-27T22:41:54.206Z,-16.17
2018-11-27T22:44:21.868Z,-16.22
2018-11-27T22:46:49.520Z,-16.28
2018-11-27T22:49:17.154Z,-16.33
2018-11-27T22:51:44.867Z,-16.23
2018-11-27T22:54:12.518Z,-16.12
2018-11-27T22:56:40.155Z,-16.09
2018-11-27T22:59:07.804Z,-16.13
2018-11-27T23:01:38.900Z,-16.27
2018-11-27T23:04:07.803Z,-16.30
2018-11-27T23:06:35.833Z,-16.34
2018-11-27T23:09:06.256Z,-16.26
2018-11-27T23:11:33.923Z,-16.14
2018-11-27T23:14:01.581Z,-16.12
2018-11-27T23:16:29.227Z,-16.30
2018-11-27T23:18:56.863Z,-16.24
2018-11-27T23:21:24.539Z,-16.42
2018-11-27T23:23:52.202Z,-16.51
2018-11-27T23:26:19.894Z,-16.61
2018-11-27T23:28:47.547Z,-16.58
2018-11-27T23:31:15.213Z,-16.40
2018-11-27T23:33:42.904Z,-16.32
2018-11-27T23:36:10.591Z,-16.30
2018-11-27T23:38:38.232Z,-16.28
2018-11-27T23:41:06.021Z,-16.26
2018-11-27T23:43:33.679Z,-16.26
2018-11-27T23:46:01.327Z,-16.26
2018-11-27T23:48:28.967Z,-16.25
2018-11-27T23:50:56.636Z,-16.33
2018-11-27T23:53:24.298Z,-16.43
2018-11-27T23:55:51.984Z,-16.38
2018-11-27T23:58:19.621Z,-16.32
